Time,TemperatureF,DewpointF,PressureIn,WindDirection,WindDirectionDegrees,WindSpeedMPH,WindSpeedGustMPH,Humidity,HourlyPrecipIn,Conditions,Clouds,dailyrainin,SoftwareType,DateUTC
2013-07-10 00:12:00,75.0,74.0,-100.00,NNE,14,0.0,1.0,97,0.00,,,0.00,,2013-07-10 05:12:00,
2013-07-10 00:22:00,75.0,74.0,-100.00,NNE,14,0.0,1.0,97,0.00,,,0.00,,2013-07-10 05:22:00,
2013-07-10 00:32:00,75.0,74.0,-100.00,NNE,14,0.0,1.0,97,0.00,,,0.00,,2013-07-10 05:32:00,
2013-07-10 00:42:00,75.0,74.0,-100.00,NNE,14,0.0,1.0,97,0.00,,,0.00,,2013-07-10 05:42:00,
2013-07-10 01:11:00,74.0,73.0,-100.00,East,88,0.0,3.0,98,0.00,,,0.00,,2013-07-10 06:11:00,
2013-07-10 01:22:00,74.0,73.0,-100.00,East,88,0.0,3.0,98,0.00,,,0.00,,2013-07-10 06:22:00,
2013-07-10 01:32:00,74.0,73.0,-100.00,East,88,0.0,3.0,98,0.00,,,0.00,,2013-07-10 06:32:00,
2013-07-10 01:42:00,74.0,73.0,-100.00,East,88,0.0,3.0,98,0.00,,,0.00,,2013-07-10 06:42:00,
2013-07-10 02:11:00,74.0,73.0,-100.00,WNW,302,1.0,2.0,98,0.00,,,0.00,,2013-07-10 07:11:00,
2013-07-10 02:22:00,74.0,73.0,-100.00,WNW,302,1.0,2.0,98,0.00,,,0.00,,2013-07-10 07:22:00,
2013-07-10 02:33:00,74.0,73.0,-100.00,WNW,302,1.0,2.0,98,0.00,,,0.00,,2013-07-10 07:33:00,
2013-07-10 02:43:00,74.0,73.0,-100.00,WNW,302,1.0,2.0,98,0.00,,,0.00,,2013-07-10 07:43:00,
2013-07-10 03:11:00,72.0,72.0,-100.00,NNE,28,0.0,0.0,99,0.00,,,0.00,,2013-07-10 08:11:00,
2013-07-10 03:23:00,72.0,72.0,-100.00,NNE,28,0.0,0.0,99,0.00,,,0.00,,2013-07-10 08:23:00,
2013-07-10 03:33:00,72.0,72.0,-100.00,NNE,28,0.0,0.0,99,0.00,,,0.00,,2013-07-10 08:33:00,
2013-07-10 03:42:00,72.0,72.0,-100.00,NNE,28,0.0,0.0,99,0.00,,,0.00,,2013-07-10 08:42:00,
2013-07-10 04:12:00,72.0,72.0,-100.00,ENE,60,0.0,0.0,99,0.00,,,0.00,,2013-07-10 09:12:00,
2013-07-10 04:22:00,72.0,72.0,-100.00,ENE,60,0.0,0.0,99,0.00,,,0.00,,2013-07-10 09:22:00,
2013-07-10 04:32:00,72.0,72.0,-100.00,ENE,60,0.0,0.0,99,0.00,,,0.00,,2013-07-10 09:32:00,
2013-07-10 04:42:00,72.0,72.0,-100.00,ENE,60,0.0,0.0,99,0.00,,,0.00,,2013-07-10 09:42:00,
2013-07-10 04:46:00,-999.0,-99.9,-100.00,North,351,0.0,0.0,-999,-99.99,,,-99.99,,2013-07-10 09:46:00,
2013-07-10 05:13:00,72.0,72.0,-100.00,North,351,0.0,0.0,99,0.00,,,0.00,,2013-07-10 10:13:00,
2013-07-10 05:23:00,72.0,72.0,-100.00,North,351,0.0,0.0,99,0.00,,,0.00,,2013-07-10 10:23:00,
2013-07-10 05:32:00,72.0,72.0,-100.00,North,351,0.0,0.0,99,0.00,,,0.00,,2013-07-10 10:32:00,
2013-07-10 06:11:00,73.0,73.0,-100.00,NW,313,1.0,2.0,99,0.00,,,0.00,,2013-07-10 11:11:00,
2013-07-10 06:23:00,73.0,73.0,-100.00,NW,313,1.0,2.0,99,0.00,,,0.00,,2013-07-10 11:23:00,
2013-07-10 06:33:00,73.0,73.0,-100.00,NW,313,1.0,2.0,99,0.00,,,0.00,,2013-07-10 11:33:00,
2013-07-10 06:43:00,73.0,73.0,-100.00,NW,313,1.0,2.0,99,0.00,,,0.00,,2013-07-10 11:43:00,
2013-07-10 09:11:00,82.0,77.0,-100.00,WNW,303,2.0,6.0,85,-99.99,,,0.00,,2013-07-10 14:11:00,
2013-07-10 09:22:00,82.0,77.0,-100.00,WNW,303,2.0,6.0,85,-99.99,,,0.00,,2013-07-10 14:22:00,
2013-07-10 09:33:00,82.0,77.0,-100.00,WNW,303,2.0,6.0,85,-99.99,,,0.00,,2013-07-10 14:33:00,
2013-07-10 09:43:00,82.0,77.0,-100.00,WNW,303,2.0,6.0,85,-99.99,,,0.00,,2013-07-10 14:43:00,
2013-07-10 10:11:00,86.0,78.0,-100.00,WNW,292,3.0,8.0,77,0.00,,,0.00,,2013-07-10 15:11:00,
2013-07-10 10:22:00,86.0,78.0,-100.00,WNW,292,3.0,8.0,77,0.00,,,0.00,,2013-07-10 15:22:00,
2013-07-10 10:34:00,86.0,78.0,-100.00,WNW,292,3.0,8.0,77,0.00,,,0.00,,2013-07-10 15:34:00,
2013-07-10 10:42:00,86.0,78.0,-100.00,WNW,292,3.0,8.0,77,0.00,,,0.00,,2013-07-10 15:42:00,
2013-07-10 11:11:00,87.0,74.0,-100.00,WNW,303,3.0,9.0,65,0.00,,,0.00,,2013-07-10 16:11:00,
2013-07-10 11:22:00,87.0,74.0,-100.00,WNW,303,3.0,9.0,65,0.00,,,0.00,,2013-07-10 16:22:00,
2013-07-10 11:33:00,87.0,74.0,-100.00,WNW,303,3.0,9.0,65,0.00,,,0.00,,2013-07-10 16:33:00,
2013-07-10 11:44:00,87.0,74.0,-100.00,WNW,303,3.0,9.0,65,0.00,,,0.00,,2013-07-10 16:44:00,
2013-07-10 13:11:00,79.0,77.0,-100.00,ESE,116,1.0,4.0,95,-99.99,,,0.18,,2013-07-10 18:11:00,
2013-07-10 13:22:00,79.0,77.0,-100.00,ESE,116,1.0,4.0,95,-99.99,,,0.18,,2013-07-10 18:22:00,
2013-07-10 13:32:00,79.0,77.0,-100.00,ESE,116,1.0,4.0,95,-99.99,,,0.18,,2013-07-10 18:32:00,
2013-07-10 13:44:00,79.0,77.0,-100.00,ESE,116,1.0,4.0,95,-99.99,,,0.18,,2013-07-10 18:44:00,
2013-07-10 15:11:00,89.0,72.0,-100.00,SW,236,4.0,11.0,57,0.00,,,0.18,,2013-07-10 20:11:00,
2013-07-10 15:22:00,89.0,72.0,-100.00,SW,236,4.0,11.0,57,0.00,,,0.18,,2013-07-10 20:22:00,
2013-07-10 15:32:00,89.0,72.0,-100.00,SW,236,4.0,11.0,57,0.00,,,0.18,,2013-07-10 20:32:00,
2013-07-10 15:43:00,89.0,72.0,-100.00,SW,236,4.0,11.0,57,0.00,,,0.18,,2013-07-10 20:43:00,
2013-07-10 16:11:00,76.0,74.0,-100.00,WSW,255,4.0,30.0,95,0.32,,,0.50,,2013-07-10 21:11:00,
2013-07-10 16:22:00,76.0,74.0,-100.00,WSW,255,4.0,30.0,95,0.32,,,0.50,,2013-07-10 21:22:00,
2013-07-10 16:32:00,76.0,74.0,-100.00,WSW,255,4.0,30.0,95,0.32,,,0.50,,2013-07-10 21:32:00,
2013-07-10 16:41:00,76.0,74.0,-100.00,WSW,255,4.0,30.0,95,0.32,,,0.50,,2013-07-10 21:41:00,
2013-07-10 17:11:00,76.0,74.0,-100.00,WNW,290,3.0,10.0,95,0.01,,,0.51,,2013-07-10 22:11:00,
2013-07-10 17:21:00,76.0,74.0,-100.00,WNW,290,3.0,10.0,95,0.01,,,0.51,,2013-07-10 22:21:00,
2013-07-10 17:33:00,76.0,74.0,-100.00,WNW,290,3.0,10.0,95,0.01,,,0.51,,2013-07-10 22:33:00,
2013-07-10 17:42:00,76.0,74.0,-100.00,WNW,290,3.0,10.0,95,0.01,,,0.51,,2013-07-10 22:42:00,
2013-07-10 18:11:00,76.0,74.0,-100.00,WSW,256,2.0,7.0,93,0.00,,,0.51,,2013-07-10 23:11:00,
2013-07-10 18:22:00,76.0,74.0,-100.00,WSW,256,2.0,7.0,93,0.00,,,0.51,,2013-07-10 23:22:00,
2013-07-10 18:32:00,76.0,74.0,-100.00,WSW,256,2.0,7.0,93,0.00,,,0.51,,2013-07-10 23:32:00,
2013-07-10 18:43:00,76.0,74.0,-100.00,WSW,256,2.0,7.0,93,0.00,,,0.51,,2013-07-10 23:43:00,
2013-07-10 19:11:00,76.0,74.0,-100.00,NE,40,1.0,4.0,94,0.00,,,0.51,,2013-07-11 00:11:00,
2013-07-10 19:22:00,76.0,74.0,-100.00,NE,40,1.0,4.0,94,0.00,,,0.51,,2013-07-11 00:22:00,
2013-07-10 19:32:00,76.0,74.0,-100.00,NE,40,1.0,4.0,94,0.00,,,0.51,,2013-07-11 00:32:00,
2013-07-10 19:42:00,76.0,74.0,-100.00,NE,40,1.0,4.0,94,0.00,,,0.51,,2013-07-11 00:42:00,
2013-07-10 20:11:00,75.0,74.0,-100.00,WNW,282,3.0,5.0,97,0.00,,,0.51,,2013-07-11 01:11:00,
2013-07-10 20:22:00,75.0,74.0,-100.00,WNW,282,3.0,5.0,97,0.00,,,0.51,,2013-07-11 01:22:00,
2013-07-10 20:32:00,75.0,74.0,-100.00,WNW,282,3.0,5.0,97,0.00,,,0.51,,2013-07-11 01:32:00,
2013-07-10 20:43:00,75.0,74.0,-100.00,WNW,282,3.0,5.0,97,0.00,,,0.51,,2013-07-11 01:43:00,
2013-07-10 21:11:00,74.0,73.0,-100.00,North,358,1.0,3.0,97,0.00,,,0.51,,2013-07-11 02:11:00,
2013-07-10 21:22:00,74.0,73.0,-100.00,North,358,1.0,3.0,97,0.00,,,0.51,,2013-07-11 02:22:00,
2013-07-10 21:32:00,74.0,73.0,-100.00,North,358,1.0,3.0,97,0.00,,,0.51,,2013-07-11 02:32:00,
2013-07-10 21:43:00,74.0,73.0,-100.00,North,358,1.0,3.0,97,0.00,,,0.51,,2013-07-11 02:43:00,
2013-07-10 22:11:00,73.0,72.0,-100.00,East,101,0.0,2.0,98,0.00,,,0.51,,2013-07-11 03:11:00,
2013-07-10 22:22:00,73.0,72.0,-100.00,East,101,0.0,2.0,98,0.00,,,0.51,,2013-07-11 03:22:00,
2013-07-10 22:33:00,73.0,72.0,-100.00,East,101,0.0,2.0,98,0.00,,,0.51,,2013-07-11 03:33:00,
2013-07-10 22:42:00,73.0,72.0,-100.00,East,101,0.0,2.0,98,0.00,,,0.51,,2013-07-11 03:42:00,
2013-07-10 23:12:00,72.0,71.0,-100.00,ESE,119,0.0,0.0,98,0.00,,,0.51,,2013-07-11 04:12:00,
2013-07-10 23:22:00,72.0,71.0,-100.00,ESE,119,0.0,0.0,98,0.00,,,0.51,,2013-07-11 04:22:00,
2013-07-10 23:32:00,72.0,71.0,-100.00,ESE,119,0.0,0.0,98,0.00,,,0.51,,2013-07-11 04:32:00,
2013-07-10 23:42:00,72.0,71.0,-100.00,ESE,119,0.0,0.0,98,0.00,,,0.51,,2013-07-11 04:42:00,